Time;durP1;ratioP1;P1;durP2;ratioP2;P2;SDS_P1;SDS_P2;PMS_P1;PMS_P2;Temp;Humidity;BMP_temperature;BMP_pressure;BME280_temperature;BME280_humidity;BME280_pressure;Samples;Min_cycle;Max_cycle;Signal;HPM_P1;HPM_P2
2022/09/23 11:49:05;;;;;;;24.45;16.17;;;;;;;;;;5000238;28;20069;-69
2022/09/23 11:51:37;;;;;;;17.67;13.93;;;;;;;;;;5003235;28;20286;-69
2022/09/23 11:54:19;;;;;;;18.15;14.95;;;;;;;;;;5003884;28;20285;-69
2022/09/23 11:56:47;;;;;;;20.70;15.45;;;;;;;;;;5006189;28;20046;-69
2022/09/23 11:59:32;;;;;;;18.05;15.95;;;;;;;;;;5005387;28;20096;-69
2022/09/23 12:02:03;;;;;;;18.73;15.80;;;;;;;;;;5003419;28;20048;-69
2022/09/23 12:04:39;;;;;;;24.98;17.02;;;;;;;;;;4982439;28;20037;-69
2022/09/23 12:07:05;;;;;;;18.83;15.45;;;;;;;;;;5009702;28;20050;-69
2022/09/23 12:09:49;;;;;;;23.95;18.55;;;;;;;;;;5005990;28;20129;-69
2022/09/23 12:12:15;;;;;;;21.05;16.38;;;;;;;;;;5009475;28;20104;-69
2022/09/23 12:14:50;;;;;;;21.40;16.55;;;;;;;;;;4990319;28;20119;-69
2022/09/23 12:17:19;;;;;;;22.92;17.95;;;;;;;;;;5009154;28;20054;-68
2022/09/23 12:20:04;;;;;;;20.35;16.92;;;;;;;;;;5004652;28;20535;-69
2022/09/23 12:22:49;;;;;;;24.08;17.30;;;;;;;;;;4996004;28;20046;-69
2022/09/23 12:25:15;;;;;;;22.38;17.13;;;;;;;;;;4988244;28;20547;-69
2022/09/23 12:27:47;;;;;;;19.35;16.58;;;;;;;;;;5003140;28;20046;-69
2022/09/23 12:30:16;;;;;;;22.20;15.27;;;;;;;;;;5002679;28;20518;-69
2022/09/23 12:32:42;;;;;;;21.40;17.30;;;;;;;;;;5003819;28;20504;-69
2022/09/23 12:35:31;;;;;;;20.25;16.90;;;;;;;;;;5003229;28;20137;-69
2022/09/23 12:37:59;;;;;;;23.13;17.08;;;;;;;;;;5002557;28;20096;-69
2022/09/23 12:40:35;;;;;;;25.17;16.75;;;;;;;;;;5006503;28;20053;-69
2022/09/23 12:43:02;;;;;;;20.40;15.52;;;;;;;;;;5002392;28;20057;-69
2022/09/23 12:45:31;;;;;;;25.08;17.83;;;;;;;;;;4983812;28;20161;-69
2022/09/23 12:48:02;;;;;;;21.98;17.50;;;;;;;;;;4987702;28;20185;-69
2022/09/23 12:50:47;;;;;;;22.98;18.13;;;;;;;;;;4987779;28;20049;-69
2022/09/23 12:53:32;;;;;;;20.65;16.73;;;;;;;;;;5003131;28;20054;-69
2022/09/23 12:55:58;;;;;;;20.17;17.60;;;;;;;;;;5002041;28;20050;-69
2022/09/23 12:58:43;;;;;;;19.52;17.35;;;;;;;;;;4996427;28;20137;-69
2022/09/23 13:01:17;;;;;;;22.08;18.30;;;;;;;;;;4979094;28;20054;-69
2022/09/23 13:06:39;;;;;;;19.37;17.43;;;;;;;;;;5003860;28;20182;-69
2022/09/23 13:09:13;;;;;;;21.60;17.75;;;;;;;;;;5006216;28;20540;-69
2022/09/23 13:11:42;;;;;;;25.25;18.85;;;;;;;;;;5000054;28;20096;-69
2022/09/23 13:14:10;;;;;;;22.63;16.85;;;;;;;;;;4995341;28;20081;-69
2022/09/23 13:16:44;;;;;;;20.92;18.65;;;;;;;;;;4997173;28;20057;-69
2022/09/23 13:19:26;;;;;;;24.17;18.48;;;;;;;;;;5005315;28;20056;-69
2022/09/23 13:22:07;;;;;;;21.55;18.63;;;;;;;;;;5005485;28;20049;-69
2022/09/23 13:24:47;;;;;;;22.58;19.27;;;;;;;;;;5002898;28;20042;-69
2022/09/23 13:27:31;;;;;;;24.50;19.30;;;;;;;;;;5004446;28;20413;-69
2022/09/23 13:30:06;;;;;;;20.92;16.50;;;;;;;;;;5001663;28;20046;-69
2022/09/23 13:32:33;;;;;;;21.83;18.92;;;;;;;;;;5004939;28;20046;-69
2022/09/23 13:35:15;;;;;;;21.73;18.90;;;;;;;;;;5004255;28;20050;-69
2022/09/23 13:37:45;;;;;;;25.90;21.50;;;;;;;;;;5006325;28;20518;-69
2022/09/23 13:40:28;;;;;;;22.42;20.02;;;;;;;;;;4991385;28;20525;-69
2022/09/23 13:42:59;;;;;;;21.80;18.15;;;;;;;;;;5008073;28;20053;-69
2022/09/23 13:45:26;;;;;;;23.08;19.65;;;;;;;;;;4987067;28;20045;-69
2022/09/23 13:47:54;;;;;;;31.48;20.83;;;;;;;;;;5007515;28;20046;-69
2022/09/23 13:50:21;;;;;;;23.38;19.95;;;;;;;;;;4987650;28;20049;-69
2022/09/23 13:52:57;;;;;;;25.95;20.02;;;;;;;;;;5008190;28;20298;-69
2022/09/23 13:55:36;;;;;;;27.02;19.92;;;;;;;;;;4971219;28;20054;-69
2022/09/23 13:58:04;;;;;;;21.80;18.17;;;;;;;;;;4990694;28;20580;-69
2022/09/23 14:00:34;;;;;;;26.98;21.80;;;;;;;;;;5007555;28;20328;-69
2022/09/23 14:03:01;;;;;;;22.77;20.35;;;;;;;;;;5008433;28;20085;-69
2022/09/23 14:05:31;;;;;;;24.73;21.40;;;;;;;;;;5007009;28;20093;-69
2022/09/23 14:07:57;;;;;;;25.23;18.42;;;;;;;;;;5008204;28;20053;-69
2022/09/23 14:10:26;;;;;;;27.98;22.52;;;;;;;;;;5007376;28;20052;-69
2022/09/23 14:12:54;;;;;;;25.30;21.40;;;;;;;;;;5007331;28;20071;-69
2022/09/23 14:15:20;;;;;;;25.83;19.35;;;;;;;;;;5005766;28;20049;-69
2022/09/23 14:17:48;;;;;;;24.90;20.50;;;;;;;;;;4988098;28;20057;-69
2022/09/23 14:20:15;;;;;;;31.50;21.08;;;;;;;;;;4990312;28;20522;-69
2022/09/23 14:22:41;;;;;;;28.63;22.08;;;;;;;;;;5007401;28;20045;-69
2022/09/23 14:25:15;;;;;;;32.40;21.75;;;;;;;;;;5006400;28;20109;-69
2022/09/23 14:27:42;;;;;;;26.02;20.55;;;;;;;;;;5005240;28;20129;-69
2022/09/23 14:30:17;;;;;;;23.88;20.15;;;;;;;;;;4988208;28;20050;-69
2022/09/23 14:32:44;;;;;;;23.05;19.02;;;;;;;;;;5006739;28;20672;-69
2022/09/23 14:35:20;;;;;;;24.45;20.35;;;;;;;;;;5003130;28;20133;-69
2022/09/23 14:40:38;;;;;;;27.27;20.52;;;;;;;;;;5006938;28;20041;-68
2022/09/23 14:43:16;;;;;;;28.23;21.20;;;;;;;;;;5007512;28;20062;-69
2022/09/23 14:45:47;;;;;;;32.33;19.85;;;;;;;;;;5005435;28;20399;-69
2022/09/23 14:48:13;;;;;;;27.20;20.20;;;;;;;;;;4980772;28;20112;-69
2022/09/23 14:50:48;;;;;;;27.92;22.33;;;;;;;;;;5006111;28;20041;-69
2022/09/23 14:53:26;;;;;;;30.67;23.05;;;;;;;;;;5001503;28;20061;-69
2022/09/23 14:55:56;;;;;;;26.92;22.45;;;;;;;;;;5006190;28;20185;-69
2022/09/23 14:58:25;;;;;;;27.27;22.27;;;;;;;;;;5004509;28;20105;-69
2022/09/23 15:00:53;;;;;;;30.60;23.52;;;;;;;;;;5006072;28;20054;-69
2022/09/23 15:03:20;;;;;;;28.88;22.98;;;;;;;;;;5008601;28;20038;-69
2022/09/23 15:05:47;;;;;;;25.17;20.75;;;;;;;;;;4989300;28;20056;-69
2022/09/23 15:08:24;;;;;;;27.88;21.30;;;;;;;;;;5006380;28;20057;-69
2022/09/23 15:10:50;;;;;;;26.20;20.13;;;;;;;;;;5006480;28;20042;-69
2022/09/23 15:13:18;;;;;;;23.75;19.48;;;;;;;;;;5006964;28;20050;-69
2022/09/23 15:15:45;;;;;;;27.67;19.48;;;;;;;;;;5005847;28;20056;-69
2022/09/23 15:18:17;;;;;;;24.05;20.00;;;;;;;;;;4999880;28;20061;-69
2022/09/23 15:20:53;;;;;;;24.63;19.20;;;;;;;;;;5007424;28;20045;-69
2022/09/23 15:23:36;;;;;;;23.95;20.02;;;;;;;;;;5004766;28;20106;-69
2022/09/23 15:26:08;;;;;;;22.73;18.67;;;;;;;;;;5006306;28;20068;-69
2022/09/23 15:28:34;;;;;;;23.00;20.10;;;;;;;;;;5004235;28;20054;-69
2022/09/23 15:31:01;;;;;;;49.00;20.92;;;;;;;;;;5005913;28;20046;-69
2022/09/23 15:33:28;;;;;;;29.73;20.92;;;;;;;;;;5000161;28;20042;-69
2022/09/23 15:35:55;;;;;;;22.58;19.30;;;;;;;;;;5006727;28;20483;-69
2022/09/23 15:38:21;;;;;;;26.73;20.50;;;;;;;;;;5006083;28;20136;-69
2022/09/23 15:40:47;;;;;;;26.88;20.33;;;;;;;;;;5000470;28;20049;-69
2022/09/23 15:43:22;;;;;;;23.08;19.23;;;;;;;;;;5004185;28;20052;-69
2022/09/23 15:45:49;;;;;;;25.17;21.05;;;;;;;;;;4984412;28;20050;-69
2022/09/23 15:48:21;;;;;;;23.73;21.17;;;;;;;;;;5006027;28;20062;-69
2022/09/23 15:50:49;;;;;;;23.17;20.70;;;;;;;;;;5007086;28;20673;-69
2022/09/23 15:53:18;;;;;;;22.55;19.38;;;;;;;;;;5006341;28;20288;-69
2022/09/23 15:55:45;;;;;;;23.92;18.05;;;;;;;;;;4989191;28;20472;-69
2022/09/23 15:58:11;;;;;;;19.63;17.52;;;;;;;;;;5003977;28;20088;-68
2022/09/23 16:00:37;;;;;;;21.25;18.65;;;;;;;;;;5000772;28;20084;-69
2022/09/23 16:03:05;;;;;;;19.25;16.73;;;;;;;;;;4999875;28;20065;-68
2022/09/23 16:05:36;;;;;;;24.95;19.48;;;;;;;;;;5003260;28;20065;-69
2022/09/23 16:08:06;;;;;;;23.52;18.13;;;;;;;;;;5005978;28;20145;-69
2022/09/23 16:10:32;;;;;;;24.13;17.50;;;;;;;;;;4996382;28;20042;-69
2022/09/23 16:13:00;;;;;;;18.65;16.23;;;;;;;;;;5003011;28;20045;-69
2022/09/23 16:15:30;;;;;;;21.58;17.83;;;;;;;;;;4999802;28;20149;-69
2022/09/23 16:17:57;;;;;;;24.15;18.75;;;;;;;;;;5002623;28;20104;-69
2022/09/23 16:20:24;;;;;;;23.75;19.25;;;;;;;;;;5003676;28;20061;-69
2022/09/23 16:22:53;;;;;;;20.20;16.80;;;;;;;;;;4967686;28;20092;-69
2022/09/23 16:25:20;;;;;;;19.65;17.23;;;;;;;;;;5002870;28;20081;-69
2022/09/23 16:27:46;;;;;;;21.30;17.70;;;;;;;;;;5001159;28;20045;-69
2022/09/23 16:30:12;;;;;;;28.83;21.00;;;;;;;;;;5003551;28;20104;-69
2022/09/23 16:32:38;;;;;;;21.83;17.83;;;;;;;;;;4993567;28;20062;-69
2022/09/23 16:35:07;;;;;;;22.10;16.90;;;;;;;;;;5005575;28;20053;-69
2022/09/23 16:37:33;;;;;;;20.15;18.00;;;;;;;;;;4987710;28;20060;-69
2022/09/23 16:39:59;;;;;;;20.27;16.70;;;;;;;;;;5005955;28;20042;-68
2022/09/23 16:42:26;;;;;;;19.65;15.68;;;;;;;;;;5003369;28;20133;-69
2022/09/23 16:44:53;;;;;;;22.15;17.60;;;;;;;;;;4990675;28;20185;-69
2022/09/23 16:47:19;;;;;;;27.95;19.25;;;;;;;;;;4990650;28;20042;-68
2022/09/23 16:49:45;;;;;;;22.33;17.38;;;;;;;;;;5005037;28;20053;-69
2022/09/23 16:52:13;;;;;;;19.77;17.42;;;;;;;;;;4989223;28;20089;-69
2022/09/23 16:54:41;;;;;;;25.38;18.50;;;;;;;;;;4986659;28;20050;-69
2022/09/23 16:57:08;;;;;;;21.60;16.27;;;;;;;;;;5002602;28;20508;-69
2022/09/23 17:05:05;;;;;;;26.58;20.25;;;;;;;;;;5005502;28;20061;-70
2022/09/23 17:07:31;;;;;;;22.42;17.55;;;;;;;;;;4988418;28;20056;-69
2022/09/23 17:09:57;;;;;;;27.58;20.85;;;;;;;;;;4972980;28;20104;-69
2022/09/23 17:12:33;;;;;;;24.63;20.10;;;;;;;;;;5005071;28;20115;-70
2022/09/23 17:15:00;;;;;;;24.00;20.17;;;;;;;;;;5008283;28;20492;-69
2022/09/23 17:17:27;;;;;;;25.35;21.85;;;;;;;;;;5009478;28;20112;-69
2022/09/23 17:19:53;;;;;;;25.20;18.67;;;;;;;;;;5011084;28;20052;-69
2022/09/23 17:22:19;;;;;;;22.10;18.17;;;;;;;;;;4994628;28;20052;-69
2022/09/23 17:24:45;;;;;;;22.33;19.92;;;;;;;;;;5000610;28;20047;-69
2022/09/23 17:27:12;;;;;;;24.45;19.75;;;;;;;;;;4998341;28;20058;-69
2022/09/23 17:29:38;;;;;;;24.15;19.40;;;;;;;;;;5006473;28;20046;-69
2022/09/23 17:32:04;;;;;;;22.98;16.92;;;;;;;;;;5008101;28;20080;-69
2022/09/23 17:34:32;;;;;;;22.27;17.42;;;;;;;;;;5009759;28;20060;-69
2022/09/23 17:36:59;;;;;;;22.23;19.25;;;;;;;;;;5012141;28;20082;-69
2022/09/23 17:39:25;;;;;;;21.95;18.15;;;;;;;;;;5012049;28;20056;-69
2022/09/23 17:41:56;;;;;;;20.63;17.63;;;;;;;;;;4994445;28;20046;-69
2022/09/23 17:44:23;;;;;;;22.77;17.77;;;;;;;;;;5009176;28;20050;-69
2022/09/23 17:46:49;;;;;;;23.75;19.15;;;;;;;;;;4990890;28;20501;-69
2022/09/23 17:49:17;;;;;;;23.35;19.27;;;;;;;;;;4996932;28;20042;-69
2022/09/23 17:51:43;;;;;;;24.17;17.88;;;;;;;;;;4999329;28;20045;-69
2022/09/23 17:54:09;;;;;;;18.15;15.48;;;;;;;;;;4984518;28;20055;-69
2022/09/23 17:56:36;;;;;;;22.55;18.55;;;;;;;;;;4987437;28;20064;-68
2022/09/23 17:59:02;;;;;;;20.33;17.25;;;;;;;;;;4994785;28;20047;-69
2022/09/23 18:01:28;;;;;;;23.00;16.73;;;;;;;;;;4986872;28;20050;-69
2022/09/23 18:03:55;;;;;;;19.40;15.93;;;;;;;;;;4980617;28;20042;-69
2022/09/23 18:06:22;;;;;;;23.65;19.10;;;;;;;;;;5003414;28;20042;-69
2022/09/23 18:08:49;;;;;;;21.05;16.70;;;;;;;;;;4997969;28;20042;-69
2022/09/23 18:11:19;;;;;;;22.95;17.63;;;;;;;;;;5008144;28;20042;-69
2022/09/23 18:13:50;;;;;;;21.38;17.55;;;;;;;;;;4992290;28;20046;-69
2022/09/23 18:16:17;;;;;;;21.27;18.45;;;;;;;;;;5004396;28;20042;-69
2022/09/23 18:18:43;;;;;;;21.38;18.00;;;;;;;;;;4990927;28;20078;-69
2022/09/23 18:21:09;;;;;;;21.02;16.60;;;;;;;;;;4979286;28;20052;-69
2022/09/23 18:23:36;;;;;;;20.25;16.77;;;;;;;;;;4982762;28;20081;-69
2022/09/23 18:26:03;;;;;;;21.25;19.05;;;;;;;;;;4984116;28;20331;-69
2022/09/23 18:28:29;;;;;;;22.17;16.90;;;;;;;;;;5002381;28;20049;-69
2022/09/23 18:30:56;;;;;;;27.20;17.85;;;;;;;;;;5004725;28;20048;-69
2022/09/23 18:33:23;;;;;;;19.52;17.17;;;;;;;;;;4999853;28;20038;-69
2022/09/23 18:35:50;;;;;;;19.88;17.20;;;;;;;;;;5008082;28;20261;-70
2022/09/23 18:38:17;;;;;;;25.27;18.70;;;;;;;;;;4989831;28;20111;-69
2022/09/23 18:40:54;;;;;;;18.33;15.90;;;;;;;;;;5007654;28;20503;-69
2022/09/23 18:43:21;;;;;;;19.35;17.23;;;;;;;;;;5006841;28;20060;-69
2022/09/23 18:45:55;;;;;;;19.63;16.90;;;;;;;;;;4997831;28;20057;-69
2022/09/23 18:51:09;;;;;;;20.58;16.85;;;;;;;;;;4990538;28;20042;-69
2022/09/23 18:53:36;;;;;;;19.77;17.63;;;;;;;;;;4996543;28;20108;-69
2022/09/23 18:56:09;;;;;;;21.65;16.15;;;;;;;;;;5007773;28;20060;-69
2022/09/23 18:58:36;;;;;;;18.63;15.57;;;;;;;;;;5006993;28;20052;-69
2022/09/23 19:01:03;;;;;;;22.48;16.45;;;;;;;;;;5003916;28;20049;-69
2022/09/23 19:03:29;;;;;;;23.65;17.83;;;;;;;;;;5007752;28;20050;-69
2022/09/23 19:06:00;;;;;;;20.88;16.80;;;;;;;;;;5007129;28;20114;-69
2022/09/23 19:08:27;;;;;;;20.85;16.23;;;;;;;;;;5004311;28;20104;-69
2022/09/23 19:10:57;;;;;;;18.90;16.75;;;;;;;;;;5007022;28;20501;-69
2022/09/23 19:13:23;;;;;;;20.70;16.52;;;;;;;;;;4987144;28;20128;-69
2022/09/23 19:15:49;;;;;;;19.52;15.98;;;;;;;;;;4976992;28;20124;-69
2022/09/23 19:18:19;;;;;;;18.05;15.82;;;;;;;;;;5003449;28;20096;-69
2022/09/23 19:20:52;;;;;;;22.25;17.20;;;;;;;;;;5007421;28;20057;-69
2022/09/23 19:23:19;;;;;;;21.05;17.30;;;;;;;;;;5003218;28;20579;-69
2022/09/23 19:25:45;;;;;;;20.80;17.48;;;;;;;;;;5007306;28;20056;-69
2022/09/23 19:28:11;;;;;;;24.70;17.63;;;;;;;;;;5005550;28;20536;-69
2022/09/23 19:30:38;;;;;;;21.48;18.02;;;;;;;;;;5005832;28;20045;-69
2022/09/23 19:33:05;;;;;;;24.25;17.98;;;;;;;;;;4990277;28;20507;-69
2022/09/23 19:35:34;;;;;;;19.33;16.30;;;;;;;;;;4999103;28;20112;-69
2022/09/23 19:38:00;;;;;;;22.63;18.05;;;;;;;;;;5007130;28;20515;-69
2022/09/23 19:40:30;;;;;;;19.50;16.00;;;;;;;;;;4988414;28;20050;-69
2022/09/23 19:42:57;;;;;;;19.25;16.55;;;;;;;;;;5001869;28;20055;-69
2022/09/23 19:45:23;;;;;;;22.23;17.13;;;;;;;;;;5002740;28;20512;-69
2022/09/23 19:47:54;;;;;;;22.05;18.67;;;;;;;;;;5004090;28;20129;-69
2022/09/23 19:50:20;;;;;;;20.27;18.20;;;;;;;;;;5006925;28;20050;-69
2022/09/23 19:52:50;;;;;;;21.73;18.33;;;;;;;;;;5006997;28;20455;-69
2022/09/23 19:55:18;;;;;;;24.65;17.48;;;;;;;;;;4989358;28;20748;-69
2022/09/23 19:57:44;;;;;;;27.27;19.00;;;;;;;;;;5006400;28;20057;-69
2022/09/23 20:00:10;;;;;;;19.35;16.92;;;;;;;;;;5006116;28;20046;-69
2022/09/23 20:02:36;;;;;;;22.38;18.55;;;;;;;;;;5007017;28;20135;-69
2022/09/23 20:05:03;;;;;;;23.65;20.42;;;;;;;;;;5005885;28;20654;-69
2022/09/23 20:07:29;;;;;;;19.40;16.73;;;;;;;;;;5004242;28;20060;-69
2022/09/23 20:09:55;;;;;;;22.83;18.40;;;;;;;;;;5006216;28;20487;-68
2022/09/23 20:12:22;;;;;;;22.45;18.10;;;;;;;;;;4995513;28;20056;-69
2022/09/23 20:14:50;;;;;;;26.15;18.35;;;;;;;;;;5000208;28;20225;-69
2022/09/23 20:17:17;;;;;;;20.60;17.73;;;;;;;;;;5006392;28;20056;-69
2022/09/23 20:19:44;;;;;;;21.65;17.83;;;;;;;;;;5002933;28;20448;-70
2022/09/23 20:22:27;;;;;;;21.95;19.65;;;;;;;;;;4998437;28;20096;-69
2022/09/23 20:24:54;;;;;;;23.27;18.52;;;;;;;;;;4997692;28;20492;-69
2022/09/23 20:27:20;;;;;;;25.60;19.73;;;;;;;;;;5006563;28;20053;-68
2022/09/23 20:29:47;;;;;;;22.08;17.58;;;;;;;;;;4994314;28;20058;-69
2022/09/23 20:32:13;;;;;;;24.50;18.27;;;;;;;;;;4985226;28;20054;-69
2022/09/23 20:34:43;;;;;;;22.35;19.17;;;;;;;;;;5001440;28;20065;-68
2022/09/23 20:37:10;;;;;;;19.55;17.38;;;;;;;;;;4998849;28;20123;-68
2022/09/23 20:39:36;;;;;;;20.45;17.88;;;;;;;;;;4999175;28;20061;-69
2022/09/23 20:42:02;;;;;;;19.75;17.65;;;;;;;;;;4988826;28;20046;-69
2022/09/23 20:44:28;;;;;;;22.15;17.50;;;;;;;;;;5006844;28;20050;-68
2022/09/23 20:46:55;;;;;;;17.85;16.05;;;;;;;;;;5009029;28;20136;-69
2022/09/23 20:49:21;;;;;;;20.95;17.08;;;;;;;;;;5012971;28;20124;-69
2022/09/23 20:51:48;;;;;;;20.85;18.63;;;;;;;;;;5014565;28;20057;-69
2022/09/23 20:54:15;;;;;;;26.33;19.00;;;;;;;;;;5012001;28;20534;-69
2022/09/23 20:56:41;;;;;;;23.98;18.20;;;;;;;;;;5007659;28;20054;-69
2022/09/23 20:59:09;;;;;;;20.63;16.92;;;;;;;;;;5010315;28;20563;-69
2022/09/23 21:01:35;;;;;;;20.63;18.25;;;;;;;;;;5009100;28;20232;-69
2022/09/23 21:04:03;;;;;;;21.27;16.13;;;;;;;;;;4994178;28;20069;-70
2022/09/23 21:06:30;;;;;;;24.17;18.55;;;;;;;;;;4993174;28;20451;-69
2022/09/23 21:08:56;;;;;;;24.77;18.88;;;;;;;;;;5004470;28;20077;-69
2022/09/23 21:11:24;;;;;;;24.17;19.23;;;;;;;;;;5011420;28;20053;-69
2022/09/23 21:13:51;;;;;;;20.98;17.88;;;;;;;;;;5011595;28;20054;-69
2022/09/23 21:16:21;;;;;;;21.40;18.42;;;;;;;;;;5012698;28;20636;-69
2022/09/23 21:18:47;;;;;;;22.52;17.90;;;;;;;;;;5009927;28;20559;-69
2022/09/23 21:21:14;;;;;;;20.15;15.63;;;;;;;;;;5012465;28;20064;-69
2022/09/23 21:23:41;;;;;;;21.95;18.92;;;;;;;;;;5012464;28;20060;-69
2022/09/23 21:26:08;;;;;;;24.08;19.38;;;;;;;;;;4989002;28;20370;-69
2022/09/23 21:28:42;;;;;;;21.75;19.45;;;;;;;;;;5007288;28;20129;-69
2022/09/23 21:31:09;;;;;;;25.35;19.70;;;;;;;;;;5005531;28;20193;-69
2022/09/23 21:33:36;;;;;;;20.98;17.50;;;;;;;;;;5013864;28;20057;-69
2022/09/23 21:36:03;;;;;;;21.25;17.80;;;;;;;;;;5010082;28;20062;-69
2022/09/23 21:38:30;;;;;;;31.35;19.45;;;;;;;;;;4976946;28;20057;-69
2022/09/23 21:40:59;;;;;;;24.40;20.95;;;;;;;;;;5006580;28;20050;-68
2022/09/23 21:43:26;;;;;;;22.15;18.50;;;;;;;;;;5003093;28;20045;-69
2022/09/23 21:45:58;;;;;;;22.02;19.70;;;;;;;;;;4997113;28;20054;-69
2022/09/23 21:48:28;;;;;;;23.00;19.90;;;;;;;;;;5011837;28;20530;-69
2022/09/23 21:51:01;;;;;;;24.40;20.20;;;;;;;;;;5002792;28;20215;-69
2022/09/23 21:53:28;;;;;;;26.98;20.38;;;;;;;;;;4988600;28;20042;-69
2022/09/23 21:56:02;;;;;;;25.50;18.70;;;;;;;;;;5008678;28;20099;-69
2022/09/23 21:58:29;;;;;;;24.40;19.70;;;;;;;;;;5005971;28;20053;-69
2022/09/23 22:00:55;;;;;;;25.92;20.50;;;;;;;;;;4998667;28;20166;-69
2022/09/23 22:03:21;;;;;;;25.23;21.15;;;;;;;;;;4983997;28;20411;-69
2022/09/23 22:05:47;;;;;;;23.52;19.52;;;;;;;;;;5007322;28;20501;-69
2022/09/23 22:08:14;;;;;;;25.85;20.52;;;;;;;;;;4991253;28;20044;-69
2022/09/23 22:10:40;;;;;;;26.95;18.42;;;;;;;;;;5003249;28;20072;-69
2022/09/23 22:13:06;;;;;;;20.00;17.05;;;;;;;;;;5007246;28;20056;-69
2022/09/23 22:15:35;;;;;;;21.65;18.77;;;;;;;;;;5010363;28;20057;-69
2022/09/23 22:18:01;;;;;;;26.67;21.00;;;;;;;;;;5011680;28;20069;-69
2022/09/23 22:20:28;;;;;;;23.95;20.23;;;;;;;;;;4994215;28;20124;-69
2022/09/23 22:22:54;;;;;;;24.30;21.70;;;;;;;;;;5010745;28;20104;-69
2022/09/23 22:25:20;;;;;;;22.75;19.67;;;;;;;;;;5011552;28;20396;-69
2022/09/23 22:33:16;;;;;;;28.17;24.52;;;;;;;;;;5011643;28;20045;-69
2022/09/23 22:35:42;;;;;;;29.92;24.25;;;;;;;;;;5011200;28;20046;-69
2022/09/23 22:38:08;;;;;;;29.50;22.70;;;;;;;;;;5011474;28;20056;-69
2022/09/23 22:40:38;;;;;;;25.35;20.88;;;;;;;;;;5010995;28;20104;-69
2022/09/23 22:43:04;;;;;;;25.75;22.83;;;;;;;;;;5011481;28;20512;-69
2022/09/23 22:45:30;;;;;;;29.17;23.50;;;;;;;;;;5009420;28;20197;-69
2022/09/23 22:47:56;;;;;;;30.27;25.02;;;;;;;;;;4991925;28;20050;-69
2022/09/23 22:50:22;;;;;;;31.20;25.73;;;;;;;;;;5010929;28;20530;-69
2022/09/23 22:52:48;;;;;;;29.02;21.60;;;;;;;;;;5010190;28;20048;-69
2022/09/23 22:55:15;;;;;;;25.95;21.38;;;;;;;;;;5010986;28;20061;-69
2022/09/23 22:57:41;;;;;;;26.67;21.58;;;;;;;;;;5011099;28;20523;-69
2022/09/23 23:00:08;;;;;;;29.27;22.75;;;;;;;;;;5008812;28;20050;-69
2022/09/23 23:02:34;;;;;;;31.30;25.00;;;;;;;;;;4993282;28;20132;-69
